Terminal Aerodrome Forecast
Issued by NWS Paducah, KY

Home | Current Version | Previous Version | Text Only | Print | Product List | Glossary On
Versions: 1 2 3 4 5 6 7 8 9 10 11 12 13 14 15 16 17 18 19
000
FTUS43 KPAH 290500
TAFPAH
TAF
KPAH 290520Z 2906/3006 03004KT P6SM OVC015
     FM290800 03003KT P6SM SCT250
      TEMPO 2908/2912 BKN019=

USA.gov is the U.S. government's official web portal to all federal, state and local government web resources and services.